sensor_id;sensor_type;location;lat;lon;timestamp;temperature;humidity
33067;DHT22;19428;49.024;8.366;2022-09-09T00:02:23;17.10;99.90
33067;DHT22;19428;49.024;8.366;2022-09-09T00:05:09;17.10;99.90
33067;DHT22;19428;49.024;8.366;2022-09-09T00:07:51;17.20;99.90
33067;DHT22;19428;49.024;8.366;2022-09-09T00:10:29;17.20;99.90
33067;DHT22;19428;49.024;8.366;2022-09-09T00:13:15;17.20;99.90
33067;DHT22;19428;49.024;8.366;2022-09-09T00:16:08;17.20;99.90
33067;DHT22;19428;49.024;8.366;2022-09-09T00:19:12;17.20;99.90
33067;DHT22;19428;49.024;8.366;2022-09-09T00:22:14;17.20;99.90
33067;DHT22;19428;49.024;8.366;2022-09-09T00:24:44;17.20;99.90
33067;DHT22;19428;49.024;8.366;2022-09-09T00:29:52;17.20;99.90
33067;DHT22;19428;49.024;8.366;2022-09-09T00:32:20;17.10;99.90
33067;DHT22;19428;49.024;8.366;2022-09-09T00:35:18;17.20;99.90
33067;DHT22;19428;49.024;8.366;2022-09-09T00:37:46;17.10;99.90
33067;DHT22;19428;49.024;8.366;2022-09-09T00:40:35;17.10;99.90
33067;DHT22;19428;49.024;8.366;2022-09-09T00:45:54;17.00;99.90
33067;DHT22;19428;49.024;8.366;2022-09-09T00:48:23;17.00;99.90
33067;DHT22;19428;49.024;8.366;2022-09-09T00:51:06;17.10;99.90
33067;DHT22;19428;49.024;8.366;2022-09-09T00:53:51;17.20;99.90
33067;DHT22;19428;49.024;8.366;2022-09-09T00:56:25;17.30;99.90
33067;DHT22;19428;49.024;8.366;2022-09-09T00:59:28;17.30;99.90
33067;DHT22;19428;49.024;8.366;2022-09-09T01:01:56;17.30;99.90
33067;DHT22;19428;49.024;8.366;2022-09-09T01:04:32;17.30;99.90
33067;DHT22;19428;49.024;8.366;2022-09-09T01:07:16;17.30;99.90
33067;DHT22;19428;49.024;8.366;2022-09-09T01:09:54;17.40;99.90
33067;DHT22;19428;49.024;8.366;2022-09-09T01:12:25;17.40;99.90
33067;DHT22;19428;49.024;8.366;2022-09-09T01:15:00;17.40;99.90
33067;DHT22;19428;49.024;8.366;2022-09-09T01:22:43;17.40;99.90
33067;DHT22;19428;49.024;8.366;2022-09-09T01:28:22;17.40;99.90
33067;DHT22;19428;49.024;8.366;2022-09-09T01:30:48;17.40;99.90
33067;DHT22;19428;49.024;8.366;2022-09-09T01:33:16;17.50;99.90
33067;DHT22;19428;49.024;8.366;2022-09-09T01:38:14;17.40;99.90
33067;DHT22;19428;49.024;8.366;2022-09-09T01:40:40;17.40;99.90
33067;DHT22;19428;49.024;8.366;2022-09-09T01:43:06;17.30;99.90
33067;DHT22;19428;49.024;8.366;2022-09-09T01:45:33;16.90;99.90
33067;DHT22;19428;49.024;8.366;2022-09-09T01:47:59;16.70;99.90
33067;DHT22;19428;49.024;8.366;2022-09-09T01:50:25;16.50;99.90
33067;DHT22;19428;49.024;8.366;2022-09-09T01:52:56;16.40;99.90
33067;DHT22;19428;49.024;8.366;2022-09-09T01:55:40;16.30;99.90
33067;DHT22;19428;49.024;8.366;2022-09-09T02:03:51;16.10;99.90
33067;DHT22;19428;49.024;8.366;2022-09-09T02:06:37;16.00;99.90
33067;DHT22;19428;49.024;8.366;2022-09-09T02:09:06;15.90;99.90
33067;DHT22;19428;49.024;8.366;2022-09-09T02:11:33;15.90;99.90
33067;DHT22;19428;49.024;8.366;2022-09-09T02:14:22;15.80;99.90
33067;DHT22;19428;49.024;8.366;2022-09-09T02:17:10;15.80;99.90
33067;DHT22;19428;49.024;8.366;2022-09-09T02:19:40;15.80;99.90
33067;DHT22;19428;49.024;8.366;2022-09-09T02:22:10;15.80;99.90
33067;DHT22;19428;49.024;8.366;2022-09-09T02:24:38;15.80;99.90
33067;DHT22;19428;49.024;8.366;2022-09-09T02:27:06;15.80;99.90
33067;DHT22;19428;49.024;8.366;2022-09-09T02:29:37;15.80;99.90
33067;DHT22;19428;49.024;8.366;2022-09-09T02:32:06;15.90;99.90
33067;DHT22;19428;49.024;8.366;2022-09-09T02:34:38;15.80;99.90
33067;DHT22;19428;49.024;8.366;2022-09-09T02:37:07;15.80;99.90
33067;DHT22;19428;49.024;8.366;2022-09-09T02:39:33;15.90;99.90
33067;DHT22;19428;49.024;8.366;2022-09-09T02:41:59;15.90;99.90
33067;DHT22;19428;49.024;8.366;2022-09-09T02:44:25;15.80;99.90
33067;DHT22;19428;49.024;8.366;2022-09-09T02:47:20;15.80;99.90
33067;DHT22;19428;49.024;8.366;2022-09-09T02:49:57;15.80;99.90
33067;DHT22;19428;49.024;8.366;2022-09-09T02:58:04;15.80;99.90
33067;DHT22;19428;49.024;8.366;2022-09-09T03:00:32;15.80;99.90
33067;DHT22;19428;49.024;8.366;2022-09-09T03:02:58;15.70;99.90
33067;DHT22;19428;49.024;8.366;2022-09-09T03:05:24;15.70;99.90
33067;DHT22;19428;49.024;8.366;2022-09-09T03:07:50;15.70;99.90
33067;DHT22;19428;49.024;8.366;2022-09-09T03:10:16;15.80;99.90
33067;DHT22;19428;49.024;8.366;2022-09-09T03:12:43;15.80;99.90
33067;DHT22;19428;49.024;8.366;2022-09-09T03:15:08;15.80;99.90
33067;DHT22;19428;49.024;8.366;2022-09-09T03:17:35;15.80;99.90
33067;DHT22;19428;49.024;8.366;2022-09-09T03:20:04;15.80;99.90
33067;DHT22;19428;49.024;8.366;2022-09-09T03:22:30;15.70;99.90
33067;DHT22;19428;49.024;8.366;2022-09-09T03:24:56;15.70;99.90
33067;DHT22;19428;49.024;8.366;2022-09-09T03:27:22;15.70;99.90
33067;DHT22;19428;49.024;8.366;2022-09-09T03:29:47;15.70;99.90
33067;DHT22;19428;49.024;8.366;2022-09-09T03:32:16;15.70;99.90
33067;DHT22;19428;49.024;8.366;2022-09-09T03:34:43;15.70;99.90
33067;DHT22;19428;49.024;8.366;2022-09-09T03:37:08;15.80;99.90
33067;DHT22;19428;49.024;8.366;2022-09-09T03:39:34;15.70;99.90
33067;DHT22;19428;49.024;8.366;2022-09-09T03:42:00;15.80;99.90
33067;DHT22;19428;49.024;8.366;2022-09-09T03:44:29;15.80;99.90
33067;DHT22;19428;49.024;8.366;2022-09-09T03:46:55;15.80;99.90
33067;DHT22;19428;49.024;8.366;2022-09-09T03:49:21;15.80;99.90
33067;DHT22;19428;49.024;8.366;2022-09-09T03:51:48;15.70;99.90
33067;DHT22;19428;49.024;8.366;2022-09-09T03:54:13;15.70;99.90
33067;DHT22;19428;49.024;8.366;2022-09-09T03:56:39;15.70;99.90
33067;DHT22;19428;49.024;8.366;2022-09-09T03:59:06;15.70;99.90
33067;DHT22;19428;49.024;8.366;2022-09-09T04:01:34;15.70;99.90
33067;DHT22;19428;49.024;8.366;2022-09-09T04:04:00;15.70;99.90
33067;DHT22;19428;49.024;8.366;2022-09-09T04:06:26;15.70;99.90
33067;DHT22;19428;49.024;8.366;2022-09-09T04:08:52;15.70;99.90
33067;DHT22;19428;49.024;8.366;2022-09-09T04:11:18;15.80;99.90
33067;DHT22;19428;49.024;8.366;2022-09-09T04:13:43;15.80;99.90
33067;DHT22;19428;49.024;8.366;2022-09-09T04:16:10;15.80;99.90
33067;DHT22;19428;49.024;8.366;2022-09-09T04:18:37;15.90;99.90
33067;DHT22;19428;49.024;8.366;2022-09-09T04:21:03;15.90;99.90
33067;DHT22;19428;49.024;8.366;2022-09-09T04:23:29;15.90;99.90
33067;DHT22;19428;49.024;8.366;2022-09-09T04:25:56;15.90;99.90
33067;DHT22;19428;49.024;8.366;2022-09-09T04:28:25;15.90;99.90
33067;DHT22;19428;49.024;8.366;2022-09-09T04:30:51;16.00;99.90
33067;DHT22;19428;49.024;8.366;2022-09-09T04:33:18;15.90;99.90
33067;DHT22;19428;49.024;8.366;2022-09-09T04:35:46;16.00;99.90
33067;DHT22;19428;49.024;8.366;2022-09-09T04:38:12;16.00;99.90
33067;DHT22;19428;49.024;8.366;2022-09-09T04:40:39;16.00;99.90
33067;DHT22;19428;49.024;8.366;2022-09-09T04:43:08;16.00;99.90
33067;DHT22;19428;49.024;8.366;2022-09-09T04:45:34;16.00;99.90
33067;DHT22;19428;49.024;8.366;2022-09-09T04:48:00;16.10;99.90
33067;DHT22;19428;49.024;8.366;2022-09-09T04:50:27;16.10;99.90
33067;DHT22;19428;49.024;8.366;2022-09-09T04:52:53;16.10;99.90
33067;DHT22;19428;49.024;8.366;2022-09-09T04:55:19;16.10;99.90
33067;DHT22;19428;49.024;8.366;2022-09-09T04:57:45;16.10;99.90
33067;DHT22;19428;49.024;8.366;2022-09-09T05:00:11;16.20;99.90
33067;DHT22;19428;49.024;8.366;2022-09-09T05:02:38;16.20;99.90
33067;DHT22;19428;49.024;8.366;2022-09-09T05:05:04;16.20;99.90
33067;DHT22;19428;49.024;8.366;2022-09-09T05:07:30;16.30;99.90
33067;DHT22;19428;49.024;8.366;2022-09-09T05:09:57;16.30;99.90
33067;DHT22;19428;49.024;8.366;2022-09-09T05:12:23;16.40;99.90
33067;DHT22;19428;49.024;8.366;2022-09-09T05:14:51;16.40;99.90
33067;DHT22;19428;49.024;8.366;2022-09-09T05:17:17;16.40;99.90
33067;DHT22;19428;49.024;8.366;2022-09-09T05:19:43;16.40;99.90
33067;DHT22;19428;49.024;8.366;2022-09-09T05:22:09;16.40;99.90
33067;DHT22;19428;49.024;8.366;2022-09-09T05:24:36;16.40;99.90
33067;DHT22;19428;49.024;8.366;2022-09-09T05:27:02;16.40;99.90
33067;DHT22;19428;49.024;8.366;2022-09-09T05:29:28;16.50;99.90
33067;DHT22;19428;49.024;8.366;2022-09-09T05:31:53;16.40;99.90
33067;DHT22;19428;49.024;8.366;2022-09-09T05:34:19;16.50;99.90
33067;DHT22;19428;49.024;8.366;2022-09-09T05:36:46;16.50;99.90
33067;DHT22;19428;49.024;8.366;2022-09-09T05:39:12;16.50;99.90
33067;DHT22;19428;49.024;8.366;2022-09-09T05:41:37;16.50;99.90
33067;DHT22;19428;49.024;8.366;2022-09-09T05:44:03;16.50;99.90
33067;DHT22;19428;49.024;8.366;2022-09-09T05:46:29;16.50;99.90
33067;DHT22;19428;49.024;8.366;2022-09-09T05:48:55;16.50;99.90
33067;DHT22;19428;49.024;8.366;2022-09-09T05:51:23;16.50;99.90
33067;DHT22;19428;49.024;8.366;2022-09-09T05:53:49;16.40;99.90
33067;DHT22;19428;49.024;8.366;2022-09-09T05:56:22;16.50;99.90
33067;DHT22;19428;49.024;8.366;2022-09-09T05:58:49;16.70;99.90
33067;DHT22;19428;49.024;8.366;2022-09-09T06:01:36;16.80;99.90
33067;DHT22;19428;49.024;8.366;2022-09-09T06:04:07;16.90;99.90
33067;DHT22;19428;49.024;8.366;2022-09-09T06:06:50;17.00;99.90
33067;DHT22;19428;49.024;8.366;2022-09-09T06:09:18;17.00;99.90
33067;DHT22;19428;49.024;8.366;2022-09-09T06:11:44;17.10;99.90
33067;DHT22;19428;49.024;8.366;2022-09-09T06:14:11;17.10;99.90
33067;DHT22;19428;49.024;8.366;2022-09-09T06:16:36;17.10;99.90
33067;DHT22;19428;49.024;8.366;2022-09-09T06:19:06;17.10;99.90
33067;DHT22;19428;49.024;8.366;2022-09-09T06:21:36;17.10;99.90
33067;DHT22;19428;49.024;8.366;2022-09-09T06:24:04;17.10;99.90
33067;DHT22;19428;49.024;8.366;2022-09-09T06:26:36;17.20;99.90
33067;DHT22;19428;49.024;8.366;2022-09-09T06:29:07;17.20;99.90
33067;DHT22;19428;49.024;8.366;2022-09-09T06:31:42;17.20;99.90
33067;DHT22;19428;49.024;8.366;2022-09-09T06:34:08;17.30;99.90
33067;DHT22;19428;49.024;8.366;2022-09-09T06:36:36;17.30;99.90
33067;DHT22;19428;49.024;8.366;2022-09-09T06:39:02;17.30;99.90
33067;DHT22;19428;49.024;8.366;2022-09-09T06:41:30;17.40;99.90
33067;DHT22;19428;49.024;8.366;2022-09-09T06:43:56;17.40;99.90
33067;DHT22;19428;49.024;8.366;2022-09-09T06:46:27;17.50;99.90
33067;DHT22;19428;49.024;8.366;2022-09-09T06:48:53;17.50;99.90
33067;DHT22;19428;49.024;8.366;2022-09-09T06:51:22;17.60;99.90
33067;DHT22;19428;49.024;8.366;2022-09-09T06:53:50;17.60;99.90
33067;DHT22;19428;49.024;8.366;2022-09-09T06:58:42;17.60;99.90
33067;DHT22;19428;49.024;8.366;2022-09-09T07:01:10;17.50;99.90
33067;DHT22;19428;49.024;8.366;2022-09-09T07:03:38;17.50;99.90
33067;DHT22;19428;49.024;8.366;2022-09-09T07:06:04;17.50;99.90
33067;DHT22;19428;49.024;8.366;2022-09-09T07:08:31;17.50;99.90
33067;DHT22;19428;49.024;8.366;2022-09-09T07:11:04;17.60;99.90
33067;DHT22;19428;49.024;8.366;2022-09-09T07:13:30;17.60;99.90
33067;DHT22;19428;49.024;8.366;2022-09-09T07:16:06;17.60;99.90
33067;DHT22;19428;49.024;8.366;2022-09-09T07:18:33;17.70;99.90
33067;DHT22;19428;49.024;8.366;2022-09-09T07:21:00;17.70;99.90
33067;DHT22;19428;49.024;8.366;2022-09-09T07:23:26;17.80;99.90
33067;DHT22;19428;49.024;8.366;2022-09-09T07:25:51;17.80;99.90
33067;DHT22;19428;49.024;8.366;2022-09-09T07:28:19;17.70;99.90
33067;DHT22;19428;49.024;8.366;2022-09-09T07:31:06;17.50;99.90
33067;DHT22;19428;49.024;8.366;2022-09-09T07:33:34;17.40;99.90
33067;DHT22;19428;49.024;8.366;2022-09-09T07:36:06;17.40;99.90
33067;DHT22;19428;49.024;8.366;2022-09-09T07:38:37;17.40;99.90
33067;DHT22;19428;49.024;8.366;2022-09-09T07:41:06;17.60;99.90
33067;DHT22;19428;49.024;8.366;2022-09-09T07:43:33;17.60;99.90
33067;DHT22;19428;49.024;8.366;2022-09-09T07:46:00;17.70;99.90
33067;DHT22;19428;49.024;8.366;2022-09-09T07:48:28;17.70;99.90
33067;DHT22;19428;49.024;8.366;2022-09-09T07:51:15;17.80;99.90
33067;DHT22;19428;49.024;8.366;2022-09-09T07:53:46;17.80;99.90
33067;DHT22;19428;49.024;8.366;2022-09-09T07:56:16;17.90;99.90
33067;DHT22;19428;49.024;8.366;2022-09-09T07:58:48;18.00;99.90
33067;DHT22;19428;49.024;8.366;2022-09-09T08:01:25;18.10;99.90
33067;DHT22;19428;49.024;8.366;2022-09-09T08:04:00;18.40;99.90
33067;DHT22;19428;49.024;8.366;2022-09-09T08:06:32;18.50;99.90
33067;DHT22;19428;49.024;8.366;2022-09-09T08:09:01;18.50;99.90
33067;DHT22;19428;49.024;8.366;2022-09-09T08:11:28;18.50;99.90
33067;DHT22;19428;49.024;8.366;2022-09-09T08:13:54;18.60;99.90
33067;DHT22;19428;49.024;8.366;2022-09-09T08:16:22;18.40;99.90
33067;DHT22;19428;49.024;8.366;2022-09-09T08:18:49;18.40;99.90
33067;DHT22;19428;49.024;8.366;2022-09-09T08:21:23;18.50;99.90
33067;DHT22;19428;49.024;8.366;2022-09-09T08:23:51;18.60;99.90
33067;DHT22;19428;49.024;8.366;2022-09-09T08:26:20;18.60;99.90
33067;DHT22;19428;49.024;8.366;2022-09-09T08:28:53;18.50;99.90
33067;DHT22;19428;49.024;8.366;2022-09-09T08:31:24;18.40;99.90
33067;DHT22;19428;49.024;8.366;2022-09-09T08:33:50;18.30;99.90
33067;DHT22;19428;49.024;8.366;2022-09-09T08:36:21;18.40;99.90
33067;DHT22;19428;49.024;8.366;2022-09-09T08:38:53;18.40;99.90
33067;DHT22;19428;49.024;8.366;2022-09-09T08:42:30;18.50;99.90
33067;DHT22;19428;49.024;8.366;2022-09-09T08:47:47;19.20;99.90
33067;DHT22;19428;49.024;8.366;2022-09-09T08:53:12;19.00;99.90
33067;DHT22;19428;49.024;8.366;2022-09-09T08:58:17;18.90;99.90
33067;DHT22;19428;49.024;8.366;2022-09-09T09:01:02;18.70;99.90
33067;DHT22;19428;49.024;8.366;2022-09-09T09:11:55;17.90;99.90
33067;DHT22;19428;49.024;8.366;2022-09-09T09:14:27;18.10;99.90
33067;DHT22;19428;49.024;8.366;2022-09-09T09:19:29;18.20;99.90
33067;DHT22;19428;49.024;8.366;2022-09-09T09:27:36;18.60;99.90
33067;DHT22;19428;49.024;8.366;2022-09-09T09:30:17;18.80;99.90
33067;DHT22;19428;49.024;8.366;2022-09-09T09:33:02;19.20;99.90
33067;DHT22;19428;49.024;8.366;2022-09-09T09:35:28;19.20;99.90
33067;DHT22;19428;49.024;8.366;2022-09-09T09:37:54;19.60;99.90
33067;DHT22;19428;49.024;8.366;2022-09-09T09:40:25;19.50;99.90
33067;DHT22;19428;49.024;8.366;2022-09-09T09:43:00;19.50;99.90
33067;DHT22;19428;49.024;8.366;2022-09-09T09:45:35;19.60;99.90
33067;DHT22;19428;49.024;8.366;2022-09-09T09:48:11;19.60;99.90
33067;DHT22;19428;49.024;8.366;2022-09-09T09:50:47;19.90;99.90
33067;DHT22;19428;49.024;8.366;2022-09-09T09:53:36;19.70;99.90
33067;DHT22;19428;49.024;8.366;2022-09-09T09:56:03;20.00;99.90
33067;DHT22;19428;49.024;8.366;2022-09-09T09:58:50;19.70;99.90
33067;DHT22;19428;49.024;8.366;2022-09-09T10:01:30;19.90;99.90
33067;DHT22;19428;49.024;8.366;2022-09-09T10:04:20;19.70;99.90
33067;DHT22;19428;49.024;8.366;2022-09-09T10:06:48;19.50;99.90
33067;DHT22;19428;49.024;8.366;2022-09-09T10:09:28;19.80;99.90
33067;DHT22;19428;49.024;8.366;2022-09-09T10:12:23;19.90;99.90
33067;DHT22;19428;49.024;8.366;2022-09-09T10:22:35;19.80;99.90
33067;DHT22;19428;49.024;8.366;2022-09-09T10:25:21;19.80;99.90
33067;DHT22;19428;49.024;8.366;2022-09-09T10:30:43;20.20;99.90
33067;DHT22;19428;49.024;8.366;2022-09-09T10:36:19;20.10;99.90
33067;DHT22;19428;49.024;8.366;2022-09-09T10:38:46;20.10;99.90
33067;DHT22;19428;49.024;8.366;2022-09-09T10:41:18;20.60;99.90
33067;DHT22;19428;49.024;8.366;2022-09-09T10:43:55;20.90;99.90
33067;DHT22;19428;49.024;8.366;2022-09-09T10:46:40;21.00;99.90
33067;DHT22;19428;49.024;8.366;2022-09-09T10:49:52;21.00;99.90
33067;DHT22;19428;49.024;8.366;2022-09-09T10:52:38;20.90;99.90
33067;DHT22;19428;49.024;8.366;2022-09-09T10:55:13;20.70;99.90
33067;DHT22;19428;49.024;8.366;2022-09-09T10:57:41;21.10;99.90
33067;DHT22;19428;49.024;8.366;2022-09-09T11:00:16;21.30;99.90
33067;DHT22;19428;49.024;8.366;2022-09-09T11:02:42;20.80;99.90
33067;DHT22;19428;49.024;8.366;2022-09-09T11:08:09;21.20;99.90
33067;DHT22;19428;49.024;8.366;2022-09-09T11:11:11;21.20;99.90
33067;DHT22;19428;49.024;8.366;2022-09-09T11:19:00;21.30;99.90
33067;DHT22;19428;49.024;8.366;2022-09-09T11:21:33;21.20;99.90
33067;DHT22;19428;49.024;8.366;2022-09-09T11:24:10;21.50;99.90
33067;DHT22;19428;49.024;8.366;2022-09-09T11:26:41;21.60;99.90
33067;DHT22;19428;49.024;8.366;2022-09-09T11:32:34;21.90;99.90
33067;DHT22;19428;49.024;8.366;2022-09-09T11:35:38;22.50;99.90
33067;DHT22;19428;49.024;8.366;2022-09-09T11:41:01;22.20;99.90
33067;DHT22;19428;49.024;8.366;2022-09-09T11:43:43;23.00;99.90
33067;DHT22;19428;49.024;8.366;2022-09-09T11:46:10;22.00;99.90
33067;DHT22;19428;49.024;8.366;2022-09-09T11:48:43;23.10;99.90
33067;DHT22;19428;49.024;8.366;2022-09-09T11:53:57;23.90;99.90
33067;DHT22;19428;49.024;8.366;2022-09-09T11:56:32;23.90;99.90
33067;DHT22;19428;49.024;8.366;2022-09-09T11:59:06;23.50;99.90
33067;DHT22;19428;49.024;8.366;2022-09-09T12:01:43;23.00;99.90
33067;DHT22;19428;49.024;8.366;2022-09-09T12:08:00;23.00;99.90
33067;DHT22;19428;49.024;8.366;2022-09-09T12:10:30;22.40;99.90
33067;DHT22;19428;49.024;8.366;2022-09-09T12:13:17;22.80;99.90
33067;DHT22;19428;49.024;8.366;2022-09-09T12:15:55;22.20;99.90
33067;DHT22;19428;49.024;8.366;2022-09-09T12:18:34;22.00;99.90
33067;DHT22;19428;49.024;8.366;2022-09-09T12:23:57;21.60;99.90
33067;DHT22;19428;49.024;8.366;2022-09-09T12:26:45;21.50;99.90
33067;DHT22;19428;49.024;8.366;2022-09-09T12:29:36;21.30;99.90
33067;DHT22;19428;49.024;8.366;2022-09-09T12:32:11;21.30;99.90
33067;DHT22;19428;49.024;8.366;2022-09-09T12:34:41;21.30;99.90
33067;DHT22;19428;49.024;8.366;2022-09-09T12:37:29;21.10;99.90
33067;DHT22;19428;49.024;8.366;2022-09-09T12:39:59;20.60;99.90
33067;DHT22;19428;49.024;8.366;2022-09-09T12:42:26;20.50;99.90
33067;DHT22;19428;49.024;8.366;2022-09-09T12:44:56;20.30;99.90
33067;DHT22;19428;49.024;8.366;2022-09-09T12:47:28;20.20;99.90
33067;DHT22;19428;49.024;8.366;2022-09-09T12:49:56;20.00;99.90
33067;DHT22;19428;49.024;8.366;2022-09-09T12:52:35;20.70;99.90
33067;DHT22;19428;49.024;8.366;2022-09-09T12:55:04;21.30;99.90
33067;DHT22;19428;49.024;8.366;2022-09-09T12:57:35;21.10;99.90
33067;DHT22;19428;49.024;8.366;2022-09-09T13:00:11;20.30;99.90
33067;DHT22;19428;49.024;8.366;2022-09-09T13:02:55;19.90;99.90
33067;DHT22;19428;49.024;8.366;2022-09-09T13:05:26;19.60;99.90
33067;DHT22;19428;49.024;8.366;2022-09-09T13:08:04;19.60;99.90
33067;DHT22;19428;49.024;8.366;2022-09-09T13:10:35;19.50;99.90
33067;DHT22;19428;49.024;8.366;2022-09-09T13:13:05;19.60;99.90
33067;DHT22;19428;49.024;8.366;2022-09-09T13:15:38;19.70;99.90
33067;DHT22;19428;49.024;8.366;2022-09-09T13:18:10;19.80;99.90
33067;DHT22;19428;49.024;8.366;2022-09-09T13:20:37;20.20;99.90
33067;DHT22;19428;49.024;8.366;2022-09-09T13:23:03;20.50;99.90
33067;DHT22;19428;49.024;8.366;2022-09-09T13:25:29;20.50;99.90
33067;DHT22;19428;49.024;8.366;2022-09-09T13:27:58;20.60;99.90
33067;DHT22;19428;49.024;8.366;2022-09-09T13:36:05;22.00;99.90
33067;DHT22;19428;49.024;8.366;2022-09-09T13:41:33;22.00;99.90
33067;DHT22;19428;49.024;8.366;2022-09-09T13:44:00;22.70;99.90
33067;DHT22;19428;49.024;8.366;2022-09-09T13:46:39;22.30;99.90
33067;DHT22;19428;49.024;8.366;2022-09-09T13:51:40;21.70;99.90
33067;DHT22;19428;49.024;8.366;2022-09-09T13:54:09;21.30;99.90
33067;DHT22;19428;49.024;8.366;2022-09-09T13:56:36;21.20;99.90
33067;DHT22;19428;49.024;8.366;2022-09-09T13:59:04;21.10;99.90
33067;DHT22;19428;49.024;8.366;2022-09-09T14:01:30;20.70;99.90
33067;DHT22;19428;49.024;8.366;2022-09-09T14:03:56;20.70;99.90
33067;DHT22;19428;49.024;8.366;2022-09-09T14:06:22;20.60;99.90
33067;DHT22;19428;49.024;8.366;2022-09-09T14:08:51;20.10;99.90
33067;DHT22;19428;49.024;8.366;2022-09-09T14:11:20;19.60;99.90
33067;DHT22;19428;49.024;8.366;2022-09-09T14:13:49;18.90;99.90
33067;DHT22;19428;49.024;8.366;2022-09-09T14:16:16;18.70;99.90
33067;DHT22;19428;49.024;8.366;2022-09-09T14:18:43;18.80;99.90
33067;DHT22;19428;49.024;8.366;2022-09-09T14:21:10;18.60;99.90
33067;DHT22;19428;49.024;8.366;2022-09-09T14:23:36;19.00;99.90
33067;DHT22;19428;49.024;8.366;2022-09-09T14:26:07;19.10;99.90
33067;DHT22;19428;49.024;8.366;2022-09-09T14:28:33;18.90;99.90
33067;DHT22;19428;49.024;8.366;2022-09-09T14:31:08;19.20;99.90
33067;DHT22;19428;49.024;8.366;2022-09-09T14:33:56;19.30;99.90
33067;DHT22;19428;49.024;8.366;2022-09-09T14:36:25;18.90;99.90
33067;DHT22;19428;49.024;8.366;2022-09-09T14:38:56;18.70;99.90
33067;DHT22;19428;49.024;8.366;2022-09-09T14:41:24;18.60;99.90
33067;DHT22;19428;49.024;8.366;2022-09-09T14:43:50;18.20;99.90
33067;DHT22;19428;49.024;8.366;2022-09-09T14:46:18;18.50;99.90
33067;DHT22;19428;49.024;8.366;2022-09-09T14:48:50;18.80;99.90
33067;DHT22;19428;49.024;8.366;2022-09-09T14:51:21;18.70;99.90
33067;DHT22;19428;49.024;8.366;2022-09-09T14:53:50;18.30;99.90
33067;DHT22;19428;49.024;8.366;2022-09-09T14:56:18;18.10;99.90
33067;DHT22;19428;49.024;8.366;2022-09-09T14:58:44;18.00;99.90
33067;DHT22;19428;49.024;8.366;2022-09-09T15:01:12;17.70;99.90
33067;DHT22;19428;49.024;8.366;2022-09-09T15:03:39;18.10;99.90
33067;DHT22;19428;49.024;8.366;2022-09-09T15:06:13;18.30;99.90
33067;DHT22;19428;49.024;8.366;2022-09-09T15:08:41;18.80;99.90
33067;DHT22;19428;49.024;8.366;2022-09-09T15:11:07;18.80;99.90
33067;DHT22;19428;49.024;8.366;2022-09-09T15:13:34;18.60;99.90
33067;DHT22;19428;49.024;8.366;2022-09-09T15:16:11;19.00;99.90
33067;DHT22;19428;49.024;8.366;2022-09-09T15:18:38;19.30;99.90
33067;DHT22;19428;49.024;8.366;2022-09-09T15:21:08;19.60;99.90
33067;DHT22;19428;49.024;8.366;2022-09-09T15:23:35;19.60;99.90
33067;DHT22;19428;49.024;8.366;2022-09-09T15:26:01;19.90;99.90
33067;DHT22;19428;49.024;8.366;2022-09-09T15:28:27;20.20;99.90
33067;DHT22;19428;49.024;8.366;2022-09-09T15:30:53;20.50;99.90
33067;DHT22;19428;49.024;8.366;2022-09-09T15:33:20;20.20;99.90
33067;DHT22;19428;49.024;8.366;2022-09-09T15:35:46;20.60;99.90
33067;DHT22;19428;49.024;8.366;2022-09-09T15:38:12;20.80;99.90
33067;DHT22;19428;49.024;8.366;2022-09-09T15:40:39;20.30;99.90
33067;DHT22;19428;49.024;8.366;2022-09-09T15:43:05;20.30;99.90
33067;DHT22;19428;49.024;8.366;2022-09-09T15:45:33;20.30;99.90
33067;DHT22;19428;49.024;8.366;2022-09-09T15:48:01;21.00;99.90
33067;DHT22;19428;49.024;8.366;2022-09-09T15:50:28;20.50;99.90
33067;DHT22;19428;49.024;8.366;2022-09-09T15:52:56;19.90;99.90
33067;DHT22;19428;49.024;8.366;2022-09-09T15:55:22;19.90;99.90
33067;DHT22;19428;49.024;8.366;2022-09-09T15:57:50;20.00;99.90
33067;DHT22;19428;49.024;8.366;2022-09-09T16:00:19;19.60;99.90
33067;DHT22;19428;49.024;8.366;2022-09-09T16:02:47;19.40;99.90
33067;DHT22;19428;49.024;8.366;2022-09-09T16:05:14;19.30;99.90
33067;DHT22;19428;49.024;8.366;2022-09-09T16:07:40;19.00;99.90
33067;DHT22;19428;49.024;8.366;2022-09-09T16:10:08;18.80;99.90
33067;DHT22;19428;49.024;8.366;2022-09-09T16:12:34;18.60;99.90
33067;DHT22;19428;49.024;8.366;2022-09-09T16:15:00;18.40;99.90
33067;DHT22;19428;49.024;8.366;2022-09-09T16:17:28;18.30;99.90
33067;DHT22;19428;49.024;8.366;2022-09-09T16:19:56;18.20;99.90
33067;DHT22;19428;49.024;8.366;2022-09-09T16:22:23;18.10;99.90
33067;DHT22;19428;49.024;8.366;2022-09-09T16:24:49;18.00;99.90
33067;DHT22;19428;49.024;8.366;2022-09-09T16:27:15;17.90;99.90
33067;DHT22;19428;49.024;8.366;2022-09-09T16:29:40;17.80;99.90
33067;DHT22;19428;49.024;8.366;2022-09-09T16:32:06;17.70;99.90
33067;DHT22;19428;49.024;8.366;2022-09-09T16:34:38;17.70;99.90
33067;DHT22;19428;49.024;8.366;2022-09-09T16:37:23;17.60;99.90
33067;DHT22;19428;49.024;8.366;2022-09-09T16:39:50;17.60;99.90
33067;DHT22;19428;49.024;8.366;2022-09-09T16:42:15;17.50;99.90
33067;DHT22;19428;49.024;8.366;2022-09-09T16:44:42;17.40;99.90
33067;DHT22;19428;49.024;8.366;2022-09-09T16:47:07;17.60;99.90
33067;DHT22;19428;49.024;8.366;2022-09-09T16:49:33;17.90;99.90
33067;DHT22;19428;49.024;8.366;2022-09-09T16:51:59;17.70;99.90
33067;DHT22;19428;49.024;8.366;2022-09-09T16:54:25;17.70;99.90
33067;DHT22;19428;49.024;8.366;2022-09-09T16:56:53;17.90;99.90
33067;DHT22;19428;49.024;8.366;2022-09-09T16:59:20;17.70;99.90
33067;DHT22;19428;49.024;8.366;2022-09-09T17:01:48;17.90;99.90
33067;DHT22;19428;49.024;8.366;2022-09-09T17:04:22;18.20;99.90
33067;DHT22;19428;49.024;8.366;2022-09-09T17:06:51;18.00;99.90
33067;DHT22;19428;49.024;8.366;2022-09-09T17:09:17;18.50;99.90
33067;DHT22;19428;49.024;8.366;2022-09-09T17:11:47;18.50;99.90
33067;DHT22;19428;49.024;8.366;2022-09-09T17:14:15;18.50;99.90
33067;DHT22;19428;49.024;8.366;2022-09-09T17:16:42;18.40;99.90
33067;DHT22;19428;49.024;8.366;2022-09-09T17:19:08;17.80;99.90
33067;DHT22;19428;49.024;8.366;2022-09-09T17:21:34;17.50;99.90
33067;DHT22;19428;49.024;8.366;2022-09-09T17:24:01;17.50;99.90
33067;DHT22;19428;49.024;8.366;2022-09-09T17:26:28;17.30;99.90
33067;DHT22;19428;49.024;8.366;2022-09-09T17:28:55;17.20;99.90
33067;DHT22;19428;49.024;8.366;2022-09-09T17:31:23;17.30;99.90
33067;DHT22;19428;49.024;8.366;2022-09-09T17:33:51;17.30;99.90
33067;DHT22;19428;49.024;8.366;2022-09-09T17:36:24;17.40;99.90
33067;DHT22;19428;49.024;8.366;2022-09-09T17:38:51;17.50;99.90